Time;durP1;ratioP1;P1;durP2;ratioP2;P2;SDS_P1;SDS_P2;PMS_P1;PMS_P2;Temp;Humidity;BMP_temperature;BMP_pressure;BME280_temperature;BME280_humidity;BME280_pressure;Samples;Min_cycle;Max_cycle;Signal;HPM_P1;HPM_P2
2023/09/24 14:56:22;;;;;;;18.40;5.53;;;;;;;;;;5684800;24;20058;-68
2023/09/24 14:58:50;;;;;;;;;;;;;;;;;;4820991;29;20171;-70
2023/09/24 15:01:17;;;;;;;17.25;6.30;;;;;;;;;;4823954;29;19936;-70
2023/09/24 15:03:46;;;;;;;10.23;5.18;;;;;;;;;;4815579;29;20046;-70
2023/09/24 15:06:14;;;;;;;16.83;4.22;;;;;;;;;;4811521;29;20065;-68
2023/09/24 15:08:42;;;;;;;25.70;4.75;;;;;;;;;;4837837;29;20054;-70
2023/09/24 15:11:09;;;;;;;15.48;4.25;;;;;;;;;;4838944;29;20049;-70
2023/09/24 15:13:40;;;;;;;12.35;3.88;;;;;;;;;;4836405;29;20190;-70
2023/09/24 15:16:08;;;;;;;13.63;4.25;;;;;;;;;;4812807;29;20052;-68
2023/09/24 15:18:35;;;;;;;12.90;4.18;;;;;;;;;;4822745;29;20306;-71
2023/09/24 15:21:04;;;;;;;12.98;4.25;;;;;;;;;;4839188;29;20067;-70
2023/09/24 15:23:31;;;;;;;12.27;4.38;;;;;;;;;;4839317;29;20673;-69
2023/09/24 15:25:59;;;;;;;12.80;4.65;;;;;;;;;;4839085;29;20050;-71
2023/09/24 15:28:26;;;;;;;12.13;3.80;;;;;;;;;;4839126;29;20080;-70
2023/09/24 15:30:54;;;;;;;13.98;3.88;;;;;;;;;;4818429;29;20050;-70
2023/09/24 15:33:21;;;;;;;12.35;3.97;;;;;;;;;;4830187;29;20390;-71
2023/09/24 15:35:50;;;;;;;12.68;4.25;;;;;;;;;;4838936;29;20046;-70
2023/09/24 15:38:17;;;;;;;14.07;3.92;;;;;;;;;;4838478;29;20057;-69
2023/09/24 15:40:45;;;;;;;12.20;3.50;;;;;;;;;;4838664;29;20190;-68
2023/09/24 15:43:13;;;;;;;11.18;3.97;;;;;;;;;;4838507;29;20062;-68
2023/09/24 15:45:46;;;;;;;13.57;3.30;;;;;;;;;;4838246;29;20046;-68
2023/09/24 15:48:14;;;;;;;12.65;4.35;;;;;;;;;;4806995;29;20507;-67
2023/09/24 15:50:48;;;;;;;6.80;3.40;;;;;;;;;;4831563;29;20129;-66
2023/09/24 15:53:16;;;;;;;14.77;4.60;;;;;;;;;;4825959;29;20114;-66
2023/09/24 15:55:44;;;;;;;14.05;4.85;;;;;;;;;;4838404;29;20531;-67
2023/09/24 15:58:13;;;;;;;11.82;3.85;;;;;;;;;;4837891;29;20054;-68
2023/09/24 16:00:40;;;;;;;15.65;4.68;;;;;;;;;;4838650;29;20106;-67
2023/09/24 16:03:08;;;;;;;14.80;4.18;;;;;;;;;;4838469;29;20125;-68
2023/09/24 16:05:36;;;;;;;11.18;4.07;;;;;;;;;;4829888;29;20115;-67
2023/09/24 16:08:04;;;;;;;8.20;3.67;;;;;;;;;;4833123;29;20492;-67
2023/09/24 16:10:32;;;;;;;14.15;5.25;;;;;;;;;;4837309;29;20077;-66
2023/09/24 16:12:59;;;;;;;11.00;4.57;;;;;;;;;;4821596;29;20058;-68
2023/09/24 16:15:27;;;;;;;12.88;4.63;;;;;;;;;;4837195;29;20457;-67
2023/09/24 16:17:55;;;;;;;13.02;4.20;;;;;;;;;;4821444;29;20691;-67
2023/09/24 16:20:23;;;;;;;9.07;3.55;;;;;;;;;;4837371;29;20109;-67
2023/09/24 16:22:51;;;;;;;6.25;3.22;;;;;;;;;;4836998;29;20531;-72
2023/09/24 16:25:18;;;;;;;8.70;3.40;;;;;;;;;;4837894;29;20058;-67
2023/09/24 16:27:48;;;;;;;13.05;3.47;;;;;;;;;;4837919;29;20539;-67
2023/09/24 16:30:18;;;;;;;7.72;4.00;;;;;;;;;;4822255;29;20046;-67
2023/09/24 16:32:46;;;;;;;10.88;3.90;;;;;;;;;;4837320;29;20129;-68
2023/09/24 16:35:14;;;;;;;13.10;3.50;;;;;;;;;;4820930;29;20506;-68
2023/09/24 16:37:44;;;;;;;10.35;3.45;;;;;;;;;;4821361;29;20052;-69
2023/09/24 16:40:12;;;;;;;12.40;3.20;;;;;;;;;;4830495;29;20038;-67
2023/09/24 16:42:39;;;;;;;12.45;3.83;;;;;;;;;;4829852;29;20606;-67
2023/09/24 16:45:07;;;;;;;9.90;3.20;;;;;;;;;;4820895;29;20102;-69
2023/09/24 16:47:38;;;;;;;11.55;3.70;;;;;;;;;;4837393;29;20102;-68
2023/09/24 16:50:05;;;;;;;10.20;3.00;;;;;;;;;;4836899;29;20121;-68
2023/09/24 16:52:33;;;;;;;9.60;3.67;;;;;;;;;;4828309;29;20106;-67
2023/09/24 16:55:00;;;;;;;10.02;3.00;;;;;;;;;;4820782;29;20042;-67
2023/09/24 16:57:28;;;;;;;7.55;3.05;;;;;;;;;;4836782;29;20385;-69
2023/09/24 16:59:57;;;;;;;12.40;3.15;;;;;;;;;;4837474;29;20050;-69
2023/09/24 17:02:25;;;;;;;6.35;3.00;;;;;;;;;;4836823;29;20453;-67
2023/09/24 17:04:52;;;;;;;12.35;3.25;;;;;;;;;;4834398;29;20404;-68
2023/09/24 17:07:20;;;;;;;8.15;2.83;;;;;;;;;;4827556;29;20671;-66
2023/09/24 17:09:48;;;;;;;11.32;3.13;;;;;;;;;;4836602;29;20038;-67
2023/09/24 17:12:15;;;;;;;7.47;3.60;;;;;;;;;;4835214;29;20588;-70
2023/09/24 17:14:46;;;;;;;9.27;3.20;;;;;;;;;;4823143;29;20043;-67
2023/09/24 17:17:13;;;;;;;8.63;2.85;;;;;;;;;;4807485;29;20056;-67
2023/09/24 17:19:41;;;;;;;7.32;3.08;;;;;;;;;;4820284;29;20108;-68
2023/09/24 17:22:09;;;;;;;9.45;3.10;;;;;;;;;;4835619;29;20038;-67
2023/09/24 17:24:36;;;;;;;8.00;3.20;;;;;;;;;;4836690;29;20073;-68
2023/09/24 17:27:04;;;;;;;7.38;3.15;;;;;;;;;;4836184;29;20046;-70
2023/09/24 17:29:31;;;;;;;10.77;3.17;;;;;;;;;;4836782;29;20496;-69
2023/09/24 17:31:59;;;;;;;9.35;3.00;;;;;;;;;;4836372;29;20041;-70
2023/09/24 17:34:27;;;;;;;10.20;3.30;;;;;;;;;;4836361;29;20050;-68
2023/09/24 17:36:56;;;;;;;9.43;3.20;;;;;;;;;;4836426;29;20042;-69
2023/09/24 17:39:25;;;;;;;6.40;3.03;;;;;;;;;;4836348;29;20106;-70
2023/09/24 17:41:52;;;;;;;9.35;3.25;;;;;;;;;;4836447;29;20124;-69
2023/09/24 17:44:20;;;;;;;6.57;2.70;;;;;;;;;;4836521;29;20050;-70
2023/09/24 17:46:48;;;;;;;13.55;2.80;;;;;;;;;;4836134;29;20129;-69
2023/09/24 17:49:16;;;;;;;12.80;3.42;;;;;;;;;;4836210;29;20038;-68
2023/09/24 17:51:43;;;;;;;9.27;3.30;;;;;;;;;;4836382;29;20760;-69
2023/09/24 17:54:11;;;;;;;10.15;3.33;;;;;;;;;;4836247;29;20576;-70
2023/09/24 17:56:39;;;;;;;16.20;3.83;;;;;;;;;;4836221;29;20064;-68
2023/09/24 17:59:07;;;;;;;13.07;3.60;;;;;;;;;;4835894;29;20174;-72
2023/09/24 18:01:35;;;;;;;7.57;3.28;;;;;;;;;;4825002;29;20125;-73
2023/09/24 18:04:02;;;;;;;9.13;3.10;;;;;;;;;;4836342;29;20046;-71
2023/09/24 18:06:31;;;;;;;8.07;3.35;;;;;;;;;;4823497;29;20046;-70
2023/09/24 18:09:02;;;;;;;8.15;3.80;;;;;;;;;;4819706;29;20132;-71
2023/09/24 18:11:30;;;;;;;9.52;3.75;;;;;;;;;;4836325;29;20050;-70
2023/09/24 18:13:57;;;;;;;7.75;3.55;;;;;;;;;;4837521;29;20173;-71
2023/09/24 18:16:26;;;;;;;7.13;3.25;;;;;;;;;;4823857;29;20507;-69
2023/09/24 18:18:54;;;;;;;6.72;3.47;;;;;;;;;;4839833;29;20053;-69
2023/09/24 18:21:22;;;;;;;8.80;3.22;;;;;;;;;;4823168;29;20057;-69
2023/09/24 18:23:50;;;;;;;9.82;3.85;;;;;;;;;;4840167;29;20046;-69
2023/09/24 18:26:23;;;;;;;6.60;3.30;;;;;;;;;;4839768;29;20576;-72
2023/09/24 18:28:50;;;;;;;7.53;3.15;;;;;;;;;;4839753;29;20094;-67
2023/09/24 18:31:18;;;;;;;8.73;3.20;;;;;;;;;;4839877;29;20046;-69
2023/09/24 18:33:48;;;;;;;6.95;3.08;;;;;;;;;;4833811;29;20046;-69
2023/09/24 18:36:16;;;;;;;7.72;3.35;;;;;;;;;;4839683;29;20040;-69
2023/09/24 18:38:43;;;;;;;9.32;3.20;;;;;;;;;;4839445;29;20050;-69
2023/09/24 18:41:15;;;;;;;7.43;3.40;;;;;;;;;;4839650;29;20046;-68
2023/09/24 18:43:43;;;;;;;7.32;3.10;;;;;;;;;;4834593;29;20050;-67
2023/09/24 18:46:10;;;;;;;7.93;3.15;;;;;;;;;;4833661;29;20034;-69
2023/09/24 18:48:38;;;;;;;7.55;3.22;;;;;;;;;;4831641;29;20108;-69
2023/09/24 18:51:12;;;;;;;13.07;3.67;;;;;;;;;;4838645;29;20045;-68
2023/09/24 18:53:42;;;;;;;8.02;3.08;;;;;;;;;;4839700;29;20122;-69
2023/09/24 18:56:09;;;;;;;7.32;3.25;;;;;;;;;;4838969;29;20045;-67
2023/09/24 18:58:37;;;;;;;7.43;3.10;;;;;;;;;;4804279;29;20054;-68
2023/09/24 19:01:09;;;;;;;6.30;3.05;;;;;;;;;;4830647;29;20120;-69
2023/09/24 19:03:36;;;;;;;8.63;3.28;;;;;;;;;;4828112;29;20050;-68
2023/09/24 19:06:08;;;;;;;7.57;3.78;;;;;;;;;;4824475;29;20046;-67
2023/09/24 19:08:36;;;;;;;5.43;3.50;;;;;;;;;;4838894;29;20623;-67
2023/09/24 19:11:04;;;;;;;11.93;3.60;;;;;;;;;;4838808;29;20054;-69
2023/09/24 19:13:32;;;;;;;5.93;2.90;;;;;;;;;;4839222;29;20042;-68
2023/09/24 19:16:04;;;;;;;8.02;3.45;;;;;;;;;;4831213;29;20140;-67
2023/09/24 19:18:32;;;;;;;5.80;3.38;;;;;;;;;;4836516;29;20042;-67
2023/09/24 19:21:00;;;;;;;8.60;3.35;;;;;;;;;;4838655;29;20129;-67
2023/09/24 19:23:29;;;;;;;6.40;3.40;;;;;;;;;;4839117;29;20080;-67
2023/09/24 19:25:56;;;;;;;6.88;3.13;;;;;;;;;;4827409;29;20073;-67
2023/09/24 19:28:24;;;;;;;8.18;3.10;;;;;;;;;;4838835;29;20454;-67
2023/09/24 19:30:51;;;;;;;5.70;3.40;;;;;;;;;;4834947;29;20046;-67
2023/09/24 19:33:19;;;;;;;8.32;3.15;;;;;;;;;;4832457;29;20053;-67
2023/09/24 19:35:47;;;;;;;6.40;3.22;;;;;;;;;;4838482;29;20064;-67
2023/09/24 19:38:14;;;;;;;4.95;2.80;;;;;;;;;;4838719;29;20049;-67
2023/09/24 19:40:42;;;;;;;5.57;3.13;;;;;;;;;;4838727;29;20526;-67
2023/09/24 19:43:12;;;;;;;10.02;3.90;;;;;;;;;;4838923;29;20046;-67
2023/09/24 19:45:40;;;;;;;11.43;3.60;;;;;;;;;;4838352;29;20149;-67
2023/09/24 19:48:07;;;;;;;6.47;3.20;;;;;;;;;;4838494;29;20083;-67
2023/09/24 19:50:37;;;;;;;5.65;3.50;;;;;;;;;;4838654;29;20054;-67
2023/09/24 19:53:04;;;;;;;9.77;4.63;;;;;;;;;;4831597;29;20039;-67
2023/09/24 19:55:33;;;;;;;8.77;3.78;;;;;;;;;;4839561;29;20540;-67
2023/09/24 19:58:00;;;;;;;8.32;2.95;;;;;;;;;;4842170;29;20050;-67
2023/09/24 20:00:28;;;;;;;8.10;3.20;;;;;;;;;;4843549;29;20057;-67
2023/09/24 20:02:55;;;;;;;6.03;3.20;;;;;;;;;;4843673;29;20050;-67
2023/09/24 20:05:23;;;;;;;7.78;3.30;;;;;;;;;;4827453;29;20054;-67
2023/09/24 20:07:51;;;;;;;5.90;3.30;;;;;;;;;;4843561;29;20038;-67
2023/09/24 20:10:18;;;;;;;7.57;3.17;;;;;;;;;;4843527;29;20106;-67
2023/09/24 20:12:46;;;;;;;5.38;3.08;;;;;;;;;;4826961;29;20056;-67
2023/09/24 20:15:13;;;;;;;4.65;3.15;;;;;;;;;;4826981;29;20049;-67
2023/09/24 20:17:41;;;;;;;9.43;3.63;;;;;;;;;;4843335;29;20132;-66
2023/09/24 20:20:10;;;;;;;5.10;3.17;;;;;;;;;;4843269;29;20515;-68
2023/09/24 20:22:41;;;;;;;8.30;3.20;;;;;;;;;;4843071;29;20038;-67
2023/09/24 20:25:22;;;;;;;4.72;3.03;;;;;;;;;;4843208;29;20050;-68
2023/09/24 20:27:49;;;;;;;6.43;3.80;;;;;;;;;;4843125;29;20489;-68
2023/09/24 20:30:17;;;;;;;4.93;3.10;;;;;;;;;;4826717;29;20042;-67
2023/09/24 20:32:45;;;;;;;5.50;3.00;;;;;;;;;;4843102;29;20105;-68
2023/09/24 20:35:12;;;;;;;4.63;3.17;;;;;;;;;;4843005;29;20050;-67
2023/09/24 20:37:40;;;;;;;6.78;2.97;;;;;;;;;;4842715;29;20411;-67
2023/09/24 20:40:08;;;;;;;4.93;3.33;;;;;;;;;;4842794;29;20050;-67
2023/09/24 20:42:35;;;;;;;5.72;3.28;;;;;;;;;;4843084;29;20095;-67
2023/09/24 20:45:04;;;;;;;4.60;3.00;;;;;;;;;;4842887;29;20058;-67
2023/09/24 20:47:33;;;;;;;7.07;3.20;;;;;;;;;;4842804;29;20136;-67
2023/09/24 20:50:00;;;;;;;5.68;2.95;;;;;;;;;;4842950;29;20046;-68
2023/09/24 20:52:28;;;;;;;5.47;3.30;;;;;;;;;;4826697;29;20073;-67
2023/09/24 20:54:55;;;;;;;5.20;2.97;;;;;;;;;;4842857;29;20133;-68
2023/09/24 20:57:23;;;;;;;5.38;3.05;;;;;;;;;;4842616;29;20058;-68
2023/09/24 21:00:01;;;;;;;8.18;3.40;;;;;;;;;;4842689;29;20567;-67
2023/09/24 21:02:29;;;;;;;7.10;3.53;;;;;;;;;;4842579;29;20050;-68
2023/09/24 21:05:00;;;;;;;5.63;3.25;;;;;;;;;;4842510;29;20050;-67
2023/09/24 21:07:31;;;;;;;5.30;3.28;;;;;;;;;;4842672;29;20050;-67
2023/09/24 21:10:02;;;;;;;5.88;3.70;;;;;;;;;;4842572;29;20050;-68
2023/09/24 21:12:31;;;;;;;10.20;4.18;;;;;;;;;;4842497;29;20441;-67
2023/09/24 21:14:58;;;;;;;8.13;3.28;;;;;;;;;;4842468;29;20073;-68
2023/09/24 21:17:26;;;;;;;5.70;3.15;;;;;;;;;;4826184;29;20054;-67
2023/09/24 21:19:54;;;;;;;5.97;3.05;;;;;;;;;;4842560;29;20500;-68
2023/09/24 21:22:21;;;;;;;7.10;3.30;;;;;;;;;;4842355;29;20138;-67
2023/09/24 21:24:53;;;;;;;7.35;3.22;;;;;;;;;;4826421;29;20046;-67
2023/09/24 21:27:20;;;;;;;7.03;3.00;;;;;;;;;;4842310;29;20477;-67
2023/09/24 21:29:49;;;;;;;6.65;3.30;;;;;;;;;;4842209;29;20050;-67
2023/09/24 21:32:16;;;;;;;6.88;3.35;;;;;;;;;;4826056;29;20049;-68
2023/09/24 21:34:44;;;;;;;5.15;3.20;;;;;;;;;;4842243;29;20060;-68
2023/09/24 21:37:15;;;;;;;5.75;3.28;;;;;;;;;;4842196;29;20046;-68
2023/09/24 21:39:46;;;;;;;6.55;3.55;;;;;;;;;;4842048;29;20077;-67
2023/09/24 21:42:13;;;;;;;6.57;3.20;;;;;;;;;;4842109;29;20611;-67
2023/09/24 21:44:41;;;;;;;7.00;3.45;;;;;;;;;;4842063;29;20050;-67
2023/09/24 21:47:08;;;;;;;6.38;3.28;;;;;;;;;;4842114;29;20054;-67
2023/09/24 21:49:36;;;;;;;5.43;3.17;;;;;;;;;;4841581;29;20073;-67
2023/09/24 21:52:03;;;;;;;9.15;3.28;;;;;;;;;;4842031;29;20037;-67
2023/09/24 21:54:31;;;;;;;3.80;3.17;;;;;;;;;;4825658;29;20053;-68
2023/09/24 21:56:58;;;;;;;7.30;3.55;;;;;;;;;;4825563;29;20046;-67
2023/09/24 21:59:26;;;;;;;5.13;3.35;;;;;;;;;;4841691;29;20488;-67
2023/09/24 22:01:54;;;;;;;5.00;3.10;;;;;;;;;;4841970;29;20064;-67
2023/09/24 22:04:24;;;;;;;6.78;3.50;;;;;;;;;;4842063;29;20060;-67
2023/09/24 22:06:52;;;;;;;6.60;3.50;;;;;;;;;;4841857;29;20098;-67
2023/09/24 22:09:20;;;;;;;5.85;3.90;;;;;;;;;;4841837;29;20042;-67
2023/09/24 22:11:47;;;;;;;6.00;3.72;;;;;;;;;;4841890;29;20042;-67
2023/09/24 22:14:15;;;;;;;5.45;3.38;;;;;;;;;;4841823;29;20053;-68
2023/09/24 22:16:42;;;;;;;5.63;2.97;;;;;;;;;;4841663;29;20045;-67
2023/09/24 22:19:10;;;;;;;8.00;3.50;;;;;;;;;;4841597;29;20046;-67
2023/09/24 22:21:37;;;;;;;7.55;3.25;;;;;;;;;;4841783;29;20129;-67
2023/09/24 22:24:05;;;;;;;9.15;3.70;;;;;;;;;;4841712;29;20054;-68
2023/09/24 22:26:33;;;;;;;5.32;3.33;;;;;;;;;;4841692;29;20389;-67
2023/09/24 22:29:02;;;;;;;5.50;3.30;;;;;;;;;;4825482;29;20182;-67
2023/09/24 22:31:30;;;;;;;6.13;3.13;;;;;;;;;;4841534;29;20480;-67
2023/09/24 22:33:57;;;;;;;5.28;3.22;;;;;;;;;;4841573;29;20042;-67
2023/09/24 22:36:25;;;;;;;6.03;3.63;;;;;;;;;;4841523;29;20050;-67
2023/09/24 22:38:52;;;;;;;4.60;3.13;;;;;;;;;;4841548;29;20510;-67
2023/09/24 22:41:20;;;;;;;6.45;3.40;;;;;;;;;;4841594;29;20046;-67
2023/09/24 22:43:47;;;;;;;7.93;3.20;;;;;;;;;;4841466;29;20551;-68
2023/09/24 22:46:15;;;;;;;5.38;3.28;;;;;;;;;;4841483;29;20054;-67
2023/09/24 22:48:42;;;;;;;5.75;3.15;;;;;;;;;;4841490;29;20042;-67
2023/09/24 22:51:10;;;;;;;6.95;3.03;;;;;;;;;;4841464;29;20145;-67
2023/09/24 22:53:38;;;;;;;3.40;3.10;;;;;;;;;;4841308;29;20042;-67
2023/09/24 22:56:05;;;;;;;3.78;3.33;;;;;;;;;;4841293;29;20054;-67
2023/09/24 22:58:33;;;;;;;6.43;3.65;;;;;;;;;;4841429;29;20046;-67
2023/09/24 23:01:04;;;;;;;6.05;3.60;;;;;;;;;;4844057;29;20053;-68
2023/09/24 23:03:32;;;;;;;6.45;3.72;;;;;;;;;;4844745;29;20042;-68
2023/09/24 23:06:00;;;;;;;6.65;3.47;;;;;;;;;;4844669;29;20125;-68
2023/09/24 23:08:27;;;;;;;6.78;3.40;;;;;;;;;;4828102;29;20117;-68
2023/09/24 23:10:55;;;;;;;4.80;3.25;;;;;;;;;;4844492;29;20050;-68
2023/09/24 23:13:24;;;;;;;5.57;3.50;;;;;;;;;;4844509;29;20045;-67
2023/09/24 23:15:51;;;;;;;7.10;3.70;;;;;;;;;;4844693;29;20052;-68
2023/09/24 23:18:20;;;;;;;6.20;4.05;;;;;;;;;;4844379;29;20095;-68
2023/09/24 23:20:48;;;;;;;4.13;3.15;;;;;;;;;;4844428;29;20050;-68
2023/09/24 23:23:17;;;;;;;4.13;3.60;;;;;;;;;;4844367;29;20133;-68
2023/09/24 23:25:46;;;;;;;9.38;3.67;;;;;;;;;;4844433;29;20046;-68
2023/09/24 23:28:13;;;;;;;5.93;3.50;;;;;;;;;;4844510;29;20155;-68
2023/09/24 23:30:42;;;;;;;9.55;3.58;;;;;;;;;;4844136;29;20073;-68
2023/09/24 23:33:11;;;;;;;7.43;3.90;;;;;;;;;;4844248;29;20445;-67
2023/09/24 23:35:43;;;;;;;6.07;3.55;;;;;;;;;;4844108;29;20090;-68
2023/09/24 23:38:11;;;;;;;6.65;3.78;;;;;;;;;;4844158;29;20050;-68
2023/09/24 23:40:39;;;;;;;7.47;3.60;;;;;;;;;;4844098;29;20049;-68
2023/09/24 23:43:06;;;;;;;5.45;3.65;;;;;;;;;;4844011;29;20232;-68
2023/09/24 23:45:35;;;;;;;5.50;3.65;;;;;;;;;;4844133;29;20050;-68
2023/09/24 23:48:07;;;;;;;4.22;3.40;;;;;;;;;;4843971;29;20045;-68
2023/09/24 23:50:36;;;;;;;5.68;3.60;;;;;;;;;;4844004;29;20058;-68
2023/09/24 23:53:08;;;;;;;6.00;3.88;;;;;;;;;;4843795;29;20075;-68
2023/09/24 23:55:36;;;;;;;9.75;3.95;;;;;;;;;;4843957;29;20078;-68
2023/09/24 23:58:03;;;;;;;7.63;3.72;;;;;;;;;;4843657;29;20053;-68
